Pickleville, Utah
Current Conditions -  °F | °C
As of 4:51 AM on Friday 21 Nov 2014 (Local Time) from KLGU Reporting Station
Clear Clear  
Wind Chill: -4°   Ceiling: Unl
Heat Index: -4°   Visibility: 8mi
Dew Point: -6°   Wind: 0mph
Humidity: 88%   Direction: NA
Pressure: 30.05"   Gusts: NA
Location:  41.9408°N, 111.433°W
Report Text: KLGU 211151Z AUTO 00000KT 8SM CLR M04/M06 A3005 RMK AO2 SLP190 I1000 I6000 T10441061 11022 21056 51005
Loading
Personal Weather Stations






























Interactive Weather Map New forecast layout! Learn more

10-Day Weather Forecast

Advertisements
Track Severe Weather on mobile